Time;durP1;ratioP1;P1;durP2;ratioP2;P2;SDS_P1;SDS_P2;PMS_P1;PMS_P2;Temp;Humidity;BMP_temperature;BMP_pressure;BME280_temperature;BME280_humidity;BME280_pressure;Samples;Min_cycle;Max_cycle;Signal;HPM_P1;HPM_P2
2023/12/25 00:03:52;;;;;;;22.67;10.05;;;;;;;20.00;57.14;96621.88;10409657;28;20033;-30
2023/12/25 00:08:53;;;;;;;18.63;9.70;;;;;;;20.03;57.15;96632.03;10408612;28;20040;-31
2023/12/25 00:13:55;;;;;;;22.37;11.37;;;;;;;20.03;56.80;96632.84;10406197;28;20301;-30
2023/12/25 00:18:55;;;;;;;18.80;9.32;;;;;;;19.98;57.11;96623.56;10409680;28;20295;-31
2023/12/25 00:23:56;;;;;;;16.95;8.60;;;;;;;20.03;57.03;96637.09;10399594;28;20052;-30
2023/12/25 00:28:56;;;;;;;14.63;9.23;;;;;;;20.04;56.89;96654.03;10408411;28;20040;-30
2023/12/25 00:33:57;;;;;;;19.37;9.40;;;;;;;20.03;56.98;96662.50;10409385;28;20025;-31
2023/12/25 00:38:57;;;;;;;17.70;7.77;;;;;;;19.99;57.09;96654.06;10406814;28;20466;-30
2023/12/25 00:43:58;;;;;;;20.73;9.60;;;;;;;20.05;56.98;96653.19;10404541;28;20546;-30
2023/12/25 00:48:58;;;;;;;18.38;8.40;;;;;;;20.04;56.75;96661.66;10403074;28;20283;-32
2023/12/25 00:54:00;;;;;;;21.53;8.83;;;;;;;20.02;57.10;96671.00;10403044;28;20044;-30
2023/12/25 00:59:00;;;;;;;17.90;7.32;;;;;;;19.97;57.01;96665.09;10402110;28;20516;-31
2023/12/25 01:04:01;;;;;;;20.20;8.38;;;;;;;20.06;56.93;96662.50;10402379;28;20125;-31
2023/12/25 01:09:01;;;;;;;17.40;7.40;;;;;;;20.06;56.79;96652.34;10405171;28;20397;-30
2023/12/25 01:14:02;;;;;;;16.47;8.00;;;;;;;20.04;56.83;96646.41;10401819;28;20037;-31
2023/12/25 01:19:03;;;;;;;18.88;7.72;;;;;;;20.06;56.72;96632.00;10406188;28;20065;-30
2023/12/25 01:24:03;;;;;;;14.95;7.18;;;;;;;20.02;56.72;96631.16;10404641;28;20031;-31
2023/12/25 01:29:04;;;;;;;16.33;6.63;;;;;;;20.05;56.60;96643.03;10388522;28;20065;-31
2023/12/25 01:34:04;;;;;;;13.90;7.70;;;;;;;19.98;56.70;96618.50;10402040;28;20045;-31
2023/12/25 01:39:05;;;;;;;13.47;7.20;;;;;;;20.05;57.13;96630.34;10404114;28;20025;-30
2023/12/25 01:44:05;;;;;;;16.20;7.17;;;;;;;20.02;57.25;96625.25;10399402;28;20794;-31
2023/12/25 01:49:07;;;;;;;13.82;7.25;;;;;;;19.99;57.05;96605.78;10405021;28;20525;-31
2023/12/25 01:54:08;;;;;;;12.05;6.35;;;;;;;20.02;56.91;96622.72;10403159;28;20471;-32
2023/12/25 01:59:08;;;;;;;12.57;7.20;;;;;;;20.01;56.95;96621.84;10394251;28;20117;-31
2023/12/25 02:04:09;;;;;;;14.65;6.57;;;;;;;20.01;56.96;96626.09;10404482;28;20045;-30
2023/12/25 02:09:09;;;;;;;14.18;6.85;;;;;;;20.05;56.81;96625.25;10404644;28;20065;-30
2023/12/25 02:14:12;;;;;;;12.50;6.47;;;;;;;20.01;58.04;96634.56;10400598;28;20038;-30
2023/12/25 02:19:32;;;;;;;11.75;6.53;;;;;;;20.03;57.32;96642.19;10404434;28;20044;-31
2023/12/25 02:24:36;;;;;;;15.43;6.20;;;;;;;19.99;56.95;96646.44;10402825;28;20048;-30
2023/12/25 02:29:39;;;;;;;11.25;6.68;;;;;;;20.03;56.87;96632.03;10403883;28;20041;-30
2023/12/25 02:34:39;;;;;;;12.00;5.97;;;;;;;20.08;56.82;96640.50;10398376;28;20040;-32
2023/12/25 02:39:40;;;;;;;13.60;6.00;;;;;;;20.01;56.85;96629.47;10402463;28;20041;-31
2023/12/25 02:44:40;;;;;;;10.70;6.47;;;;;;;20.08;56.86;96643.03;10388943;28;20292;-30
2023/12/25 02:49:40;;;;;;;11.10;6.17;;;;;;;20.07;56.60;96639.63;10403970;28;20538;-30
2023/12/25 02:54:41;;;;;;;11.23;6.10;;;;;;;20.06;56.71;96619.31;10396534;28;20026;-30
2023/12/25 02:59:41;;;;;;;10.83;6.43;;;;;;;19.99;56.80;96589.69;10395779;28;20302;-30
2023/12/25 03:04:42;;;;;;;13.47;6.60;;;;;;;20.07;56.58;96616.75;10403788;28;20072;-30
2023/12/25 03:09:42;;;;;;;10.30;5.50;;;;;;;20.08;56.79;96620.16;10399176;28;20304;-30
2023/12/25 03:14:42;;;;;;;12.30;6.30;;;;;;;20.09;56.34;96611.69;10398665;28;20716;-30
2023/12/25 03:19:43;;;;;;;14.07;6.45;;;;;;;20.08;56.70;96620.16;10396444;28;20041;-30
2023/12/25 03:24:43;;;;;;;12.93;5.70;;;;;;;20.09;56.55;96606.59;10394637;28;20043;-30
2023/12/25 03:29:43;;;;;;;8.57;5.97;;;;;;;20.08;56.56;96610.81;10391965;28;20033;-30
2023/12/25 03:34:49;;;;;;;13.00;6.15;;;;;;;20.10;56.54;96610.81;10402906;28;20618;-31
2023/12/25 03:39:50;;;;;;;10.20;5.32;;;;;;;20.08;56.83;96602.38;10400821;28;20689;-30
2023/12/25 03:44:50;;;;;;;9.60;5.75;;;;;;;20.10;56.29;96600.66;10401190;28;20446;-31
2023/12/25 03:49:51;;;;;;;7.83;5.30;;;;;;;20.07;56.48;96593.88;10397083;28;20098;-30
2023/12/25 03:54:51;;;;;;;9.40;6.07;;;;;;;20.05;56.42;96594.75;10400407;28;20148;-30
2023/12/25 03:59:51;;;;;;;10.63;5.33;;;;;;;20.07;56.25;96587.94;10394490;28;20044;-30
2023/12/25 04:04:53;;;;;;;9.07;5.05;;;;;;;20.07;56.47;96591.34;10401445;28;20029;-30
2023/12/25 04:09:53;;;;;;;10.20;5.60;;;;;;;20.06;56.29;96601.50;10395695;28;20103;-31
2023/12/25 04:14:53;;;;;;;10.90;5.03;;;;;;;20.07;56.26;96596.44;10429463;28;20030;-30
2023/12/25 04:19:54;;;;;;;9.68;5.20;;;;;;;20.07;56.08;96593.88;10396941;28;20030;-30
2023/12/25 04:24:55;;;;;;;11.73;5.15;;;;;;;20.08;56.28;96603.19;10395252;28;20029;-30
2023/12/25 04:29:55;;;;;;;10.65;6.22;;;;;;;20.08;56.32;96610.00;10398262;28;20025;-31
2023/12/25 04:34:56;;;;;;;6.20;4.35;;;;;;;20.08;56.38;96599.81;10396822;28;20037;-30
2023/12/25 04:39:56;;;;;;;7.53;4.83;;;;;;;20.10;56.28;96600.66;10398228;28;20381;-30
2023/12/25 04:44:57;;;;;;;7.93;5.05;;;;;;;20.10;55.98;96611.66;10400709;28;20037;-30
2023/12/25 04:49:57;;;;;;;10.18;5.50;;;;;;;20.10;56.23;96613.34;10407023;28;20033;-30
2023/12/25 04:54:58;;;;;;;7.70;4.50;;;;;;;20.07;56.07;96598.13;10404853;28;20515;-30
2023/12/25 04:59:58;;;;;;;6.63;4.57;;;;;;;20.10;56.09;96593.03;10404511;28;20291;-30
2023/12/25 05:04:59;;;;;;;7.03;4.20;;;;;;;20.07;56.64;96591.34;10405337;28;20496;-31
2023/12/25 05:09:59;;;;;;;7.80;4.30;;;;;;;20.06;56.26;96602.38;10400901;28;20072;-31
2023/12/25 05:14:59;;;;;;;8.20;4.60;;;;;;;20.06;56.77;96606.59;10405527;28;20296;-30
2023/12/25 05:20:00;;;;;;;8.23;4.13;;;;;;;20.07;57.03;96608.28;10406206;28;20041;-30
2023/12/25 05:25:00;;;;;;;6.70;4.50;;;;;;;20.05;57.15;96612.53;10404787;28;20029;-31
2023/12/25 05:30:00;;;;;;;6.60;4.50;;;;;;;20.05;56.81;96626.09;10401775;28;20571;-31
2023/12/25 05:35:01;;;;;;;7.67;4.67;;;;;;;20.01;56.86;96600.69;10406732;28;20400;-32
2023/12/25 05:40:03;;;;;;;7.65;4.60;;;;;;;20.09;56.44;96624.38;10401513;28;20360;-30
2023/12/25 05:45:03;;;;;;;7.85;4.03;;;;;;;20.10;56.59;96643.88;10395961;28;20495;-30
2023/12/25 05:50:04;;;;;;;8.73;3.97;;;;;;;20.11;56.28;96637.91;10406062;28;20096;-31
2023/12/25 05:55:05;;;;;;;6.78;4.32;;;;;;;20.12;56.20;96634.50;10398508;28;20041;-32
2023/12/25 06:00:05;;;;;;;6.80;3.83;;;;;;;20.11;56.35;96640.47;10402670;28;20033;-30
2023/12/25 06:05:12;;;;;;;6.40;4.63;;;;;;;20.13;56.65;96656.53;10407141;28;20084;-30
2023/12/25 06:10:13;;;;;;;8.60;4.60;;;;;;;20.15;56.43;96649.72;10398277;28;20183;-30
2023/12/25 06:15:14;;;;;;;5.70;3.50;;;;;;;20.13;56.33;96648.91;10403769;28;20029;-31
2023/12/25 06:20:15;;;;;;;6.38;4.35;;;;;;;20.15;56.08;96652.28;10398400;28;20053;-31
2023/12/25 06:25:15;;;;;;;5.45;3.78;;;;;;;20.16;55.78;96628.53;10400593;28;20040;-30
2023/12/25 06:30:16;;;;;;;6.03;3.77;;;;;;;20.16;55.97;96638.72;10402522;28;20084;-30
2023/12/25 06:35:17;;;;;;;7.38;4.28;;;;;;;20.17;55.95;96615.00;10401607;28;20053;-31
2023/12/25 06:40:17;;;;;;;6.10;4.10;;;;;;;20.18;55.85;96621.78;10396789;28;20037;-31
2023/12/25 06:45:17;;;;;;;6.30;4.07;;;;;;;20.20;55.90;96641.25;10394184;28;20381;-30
2023/12/25 06:50:18;;;;;;;6.37;4.33;;;;;;;20.24;55.92;96662.38;10402187;28;20284;-31
2023/12/25 06:55:18;;;;;;;5.50;3.93;;;;;;;20.24;55.66;96677.63;10395125;28;20038;-30
2023/12/25 07:00:18;;;;;;;6.43;3.90;;;;;;;20.23;55.33;96664.09;10393120;28;20561;-30
2023/12/25 07:05:19;;;;;;;8.00;3.80;;;;;;;20.22;54.96;96638.66;10387228;28;20041;-31
2023/12/25 07:10:20;;;;;;;7.35;3.55;;;;;;;20.22;55.76;96648.84;10391337;28;20851;-30
2023/12/25 07:15:20;;;;;;;5.97;3.20;;;;;;;20.21;55.91;96664.94;10400057;28;20086;-32
2023/12/25 07:20:21;;;;;;;6.13;3.33;;;;;;;20.19;56.02;96657.31;10397906;28;20047;-31
2023/12/25 07:25:21;;;;;;;5.47;3.13;;;;;;;20.16;55.71;96687.00;10390392;28;20033;-30
2023/12/25 07:30:22;;;;;;;7.93;3.38;;;;;;;20.19;55.99;96699.72;10394173;28;20044;-30
2023/12/25 07:35:23;;;;;;;12.55;3.42;;;;;;;20.14;55.64;96703.97;10396649;28;20049;-30
2023/12/25 07:40:23;;;;;;;7.20;3.90;;;;;;;20.18;55.84;96721.72;10391134;28;20572;-30
2023/12/25 07:45:23;;;;;;;15.07;4.57;;;;;;;20.23;55.67;96711.53;10397053;28;20021;-30
2023/12/25 07:50:25;;;;;;;9.33;5.17;;;;;;;20.19;54.91;96695.44;10392927;28;20064;-30
2023/12/25 07:55:25;;;;;;;14.60;5.38;;;;;;;20.22;55.24;96664.94;10396848;28;20311;-29
2023/12/25 08:00:25;;;;;;;16.30;7.03;;;;;;;20.24;56.39;96683.56;10397954;28;20041;-31
2023/12/25 08:05:26;;;;;;;15.13;6.10;;;;;;;20.21;59.88;96703.09;10389038;28;20299;-31
2023/12/25 08:10:26;;;;;;;15.73;5.83;;;;;;;20.20;56.16;96726.81;10391174;28;20107;-30
2023/12/25 08:15:27;;;;;;;9.40;5.03;;;;;;;19.95;56.64;96730.34;10395630;28;20407;-30
2023/12/25 08:20:28;;;;;;;9.93;4.57;;;;;;;19.93;54.21;96742.22;10406309;28;20051;-30
2023/12/25 08:25:28;;;;;;;9.77;4.87;;;;;;;19.80;54.20;96725.31;10404075;28;20037;-31
2023/12/25 08:30:28;;;;;;;9.13;4.63;;;;;;;19.84;54.05;96706.69;10396903;28;20032;-30
2023/12/25 08:35:29;;;;;;;11.10;4.70;;;;;;;19.85;53.83;96708.38;10405850;28;20030;-30
2023/12/25 08:40:29;;;;;;;7.10;4.07;;;;;;;19.68;51.33;96712.69;10402829;28;20056;-30
2023/12/25 08:45:30;;;;;;;7.80;3.80;;;;;;;19.62;49.20;96716.13;10400200;28;20385;-30
2023/12/25 08:50:30;;;;;;;9.87;4.97;;;;;;;19.62;52.04;96740.66;10408150;28;20533;-33
2023/12/25 08:55:31;;;;;;;11.20;3.53;;;;;;;19.65;51.01;96740.63;10402729;28;20280;-31
2023/12/25 09:00:31;;;;;;;7.97;3.95;;;;;;;19.67;51.86;96713.56;10401776;28;20037;-31
2023/12/25 09:05:32;;;;;;;13.93;4.60;;;;;;;19.74;52.27;96736.38;10407012;28;20029;-30
2023/12/25 09:10:34;;;;;;;13.70;4.32;;;;;;;19.73;51.58;96754.13;10404837;28;20049;-30
2023/12/25 09:15:34;;;;;;;20.60;4.95;;;;;;;19.56;48.49;96730.50;10396400;28;20067;-31
2023/12/25 09:20:34;;;;;;;23.77;7.40;;;;;;;19.61;51.61;96738.97;10406887;28;20428;-30
2023/12/25 09:25:35;;;;;;;17.00;6.07;;;;;;;19.57;50.65;96740.66;10398989;28;20029;-30
2023/12/25 09:30:35;;;;;;;16.87;6.73;;;;;;;19.63;51.56;96757.56;10399043;28;20037;-31
2023/12/25 09:35:36;;;;;;;10.48;3.75;;;;;;;19.41;46.41;96759.34;10404050;28;20125;-30
2023/12/25 09:40:36;;;;;;;19.67;4.28;;;;;;;19.22;47.16;96775.47;10405211;28;20033;-30
2023/12/25 09:45:37;;;;;;;15.93;4.73;;;;;;;19.48;50.42;96771.19;10401373;28;20025;-30
2023/12/25 09:50:40;;;;;;;9.82;3.95;;;;;;;19.56;51.00;96760.97;10393808;28;20766;-31
2023/12/25 09:55:40;;;;;;;19.10;5.53;;;;;;;19.59;50.98;96769.44;10399961;28;20056;-30
2023/12/25 10:00:41;;;;;;;4.55;2.00;;;;;;;19.42;48.52;96778.81;10401889;28;20400;-31
2023/12/25 10:05:41;;;;;;;10.15;2.90;;;;;;;19.45;48.86;96765.25;10403628;28;20029;-30
2023/12/25 10:10:43;;;;;;;3.77;1.90;;;;;;;19.05;45.52;96756.00;10401521;28;20045;-32
2023/12/25 10:15:43;;;;;;;3.05;1.00;;;;;;;18.40;45.23;96750.16;10399996;28;20116;-30
2023/12/25 10:20:57;;;;;;;0.97;0.83;;;;;;;18.35;44.88;96736.63;10400158;28;20030;-30
2023/12/25 10:25:59;;;;;;;0.82;0.40;;;;;;;18.40;44.48;96725.63;10393592;28;20033;-32
2023/12/25 10:31:07;;;;;;;0.43;0.35;;;;;;;18.10;44.47;96728.13;10398885;28;20405;-30
2023/12/25 10:36:10;;;;;;;0.40;0.30;;;;;;;17.87;45.06;96733.97;10390175;28;20045;-30
2023/12/25 10:41:37;;;;;;;0.30;0.30;;;;;;;17.91;44.07;96733.16;10395188;28;20404;-29
2023/12/25 10:46:38;;;;;;;0.98;0.40;;;;;;;18.31;43.23;96742.50;10387089;28;20037;-30
2023/12/25 10:51:40;;;;;;;0.60;0.25;;;;;;;18.69;45.32;96740.84;10393115;28;20037;-30
2023/12/25 10:56:43;;;;;;;2.42;0.70;;;;;;;18.95;47.10;96727.28;10387240;28;20029;-29
2023/12/25 11:01:46;;;;;;;2.30;0.70;;;;;;;19.14;48.63;96733.16;10389276;28;20037;-30
2023/12/25 11:06:47;;;;;;;3.58;0.80;;;;;;;19.12;48.99;96732.31;10398170;28;20037;-30
2023/12/25 11:11:49;;;;;;;3.38;1.02;;;;;;;19.19;50.05;96734.84;10389561;28;20098;-30
2023/12/25 11:16:49;;;;;;;2.33;0.70;;;;;;;19.22;50.34;96739.94;10392284;28;20037;-31
2023/12/25 11:21:50;;;;;;;3.30;0.77;;;;;;;19.23;50.80;96758.53;10392388;28;20589;-30
2023/12/25 11:27:01;;;;;;;1.85;0.82;;;;;;;19.25;50.92;96754.34;10397794;28;20116;-31
2023/12/25 11:32:08;;;;;;;7.82;1.00;;;;;;;19.32;51.38;96761.06;10382962;28;20038;-30
2023/12/25 11:37:22;;;;;;;1.05;0.63;;;;;;;19.25;51.30;96756.88;10385606;28;21541;-31
2023/12/25 11:42:25;;;;;;;2.83;0.93;;;;;;;19.20;52.37;96730.63;10386943;28;20041;-31
2023/12/25 11:47:39;;;;;;;3.97;1.00;;;;;;;19.33;51.56;96737.38;10389697;28;20030;-33
2023/12/25 11:52:42;;;;;;;8.23;1.10;;;;;;;19.34;52.49;96721.31;10401833;28;20037;-31
2023/12/25 11:57:46;;;;;;;9.20;1.77;;;;;;;19.39;52.44;96722.13;10403489;28;20053;-31
2023/12/25 12:02:46;;;;;;;2.58;1.40;;;;;;;19.35;52.29;96715.38;10397258;28;20041;-31
2023/12/25 12:07:47;;;;;;;4.35;1.23;;;;;;;19.37;52.19;96723.81;10398226;28;20488;-31
2023/12/25 12:12:47;;;;;;;4.63;1.10;;;;;;;19.30;53.04;96717.06;10400483;28;20033;-32
2023/12/25 12:17:47;;;;;;;0.93;0.60;;;;;;;19.22;48.82;96699.34;10397577;28;20554;-31
2023/12/25 12:22:48;;;;;;;5.03;1.30;;;;;;;19.18;52.02;96681.56;10401423;28;20300;-32
2023/12/25 12:27:49;;;;;;;2.50;0.93;;;;;;;19.25;52.59;96670.56;10404952;28;20127;-31
2023/12/25 12:32:50;;;;;;;3.28;0.95;;;;;;;19.29;52.77;96667.16;10407296;28;20689;-31
2023/12/25 12:37:53;;;;;;;2.25;1.13;;;;;;;19.28;53.04;96653.63;10404799;28;20033;-31
2023/12/25 12:42:54;;;;;;;5.45;1.30;;;;;;;19.25;53.36;96662.97;10400062;28;20408;-31
2023/12/25 12:47:55;;;;;;;4.03;1.10;;;;;;;19.29;53.38;96662.06;10407538;28;20018;-32
2023/12/25 12:52:55;;;;;;;2.38;0.90;;;;;;;19.25;53.70;96657.88;10399760;28;20043;-31
2023/12/25 12:57:55;;;;;;;3.67;1.33;;;;;;;19.29;53.99;96659.53;10401267;28;20106;-31
2023/12/25 13:02:58;;;;;;;2.67;1.17;;;;;;;19.24;54.36;96651.94;10404318;28;20056;-31
2023/12/25 13:07:58;;;;;;;3.25;0.80;;;;;;;19.28;54.04;96647.69;10402597;28;20512;-31
2023/12/25 13:12:59;;;;;;;3.25;0.80;;;;;;;19.30;54.21;96648.53;10401415;28;20116;-32
2023/12/25 13:18:00;;;;;;;2.73;0.80;;;;;;;19.25;54.38;96638.41;10405119;28;20038;-31
2023/12/25 13:23:01;;;;;;;2.40;1.00;;;;;;;19.30;54.20;96653.59;10401605;28;20117;-31
2023/12/25 13:28:02;;;;;;;1.85;0.98;;;;;;;19.28;54.74;96646.03;10402471;28;20091;-31
2023/12/25 13:33:03;;;;;;;2.28;0.80;;;;;;;19.29;54.06;96659.53;10404858;28;20041;-31
2023/12/25 13:38:03;;;;;;;2.17;0.77;;;;;;;19.30;55.06;96662.09;10397078;28;20029;-33
2023/12/25 13:43:04;;;;;;;2.30;0.90;;;;;;;19.30;54.76;96656.16;10396750;28;20079;-31
2023/12/25 13:48:05;;;;;;;2.25;0.80;;;;;;;19.27;54.49;96651.09;10404881;28;20737;-31
2023/12/25 13:53:06;;;;;;;1.73;0.52;;;;;;;19.30;54.74;96656.16;10400421;28;20044;-32
2023/12/25 13:58:06;;;;;;;1.42;0.80;;;;;;;19.29;54.71;96662.06;10401433;28;20072;-31
2023/12/25 14:03:07;;;;;;;2.53;0.80;;;;;;;19.30;54.45;96656.16;10405232;28;20602;-32
2023/12/25 14:08:07;;;;;;;1.88;0.43;;;;;;;19.30;54.68;96661.22;10402315;28;20672;-32
2023/12/25 14:13:08;;;;;;;1.93;0.70;;;;;;;19.28;55.05;96656.19;10400264;28;20547;-31
2023/12/25 14:18:08;;;;;;;2.13;0.60;;;;;;;19.28;55.05;96647.69;10404112;28;20262;-31
2023/12/25 14:23:10;;;;;;;2.15;1.15;;;;;;;19.30;54.95;96656.16;10394360;28;20052;-32
2023/12/25 14:28:10;;;;;;;0.80;0.50;;;;;;;19.29;55.31;96649.38;10398539;28;20040;-31
2023/12/25 14:33:15;;;;;;;1.90;0.70;;;;;;;19.29;55.05;96654.47;10404746;28;20426;-31
2023/12/25 14:38:15;;;;;;;2.28;1.00;;;;;;;19.31;55.69;96660.38;10402009;28;20288;-31
2023/12/25 14:43:16;;;;;;;1.80;0.60;;;;;;;19.29;54.97;96659.53;10397905;28;20034;-31
2023/12/25 14:48:16;;;;;;;2.17;0.80;;;;;;;19.27;55.44;96657.00;10402649;28;20465;-31
2023/12/25 14:53:16;;;;;;;1.00;0.50;;;;;;;19.30;55.16;96666.31;10402534;28;20091;-32
2023/12/25 14:58:17;;;;;;;1.27;0.70;;;;;;;19.28;55.48;96662.94;10398524;28;20296;-32
2023/12/25 15:03:17;;;;;;;1.07;0.53;;;;;;;19.21;55.29;96643.50;10402133;28;20415;-31
2023/12/25 15:08:17;;;;;;;2.33;0.60;;;;;;;19.27;55.57;96657.00;10397340;28;20304;-31
2023/12/25 15:13:18;;;;;;;1.47;0.50;;;;;;;19.26;54.88;96665.47;10396122;28;20124;-31
2023/12/25 15:18:18;;;;;;;0.60;0.40;;;;;;;19.20;54.88;96657.91;10402814;28;20490;-31
2023/12/25 15:23:19;;;;;;;0.53;0.50;;;;;;;19.26;55.18;96669.72;10398631;28;20590;-32
2023/12/25 15:28:19;;;;;;;1.07;0.70;;;;;;;19.24;55.43;96671.44;10396858;28;20558;-31
2023/12/25 15:33:21;;;;;;;1.38;0.45;;;;;;;19.24;55.15;96684.94;10402980;28;20152;-32
2023/12/25 15:38:21;;;;;;;2.15;0.85;;;;;;;19.23;54.87;96674.78;10396415;28;20037;-29
2023/12/25 15:43:21;;;;;;;0.80;0.55;;;;;;;19.25;55.38;96683.25;10396852;28;20037;-29
2023/12/25 15:48:23;;;;;;;1.07;0.40;;;;;;;19.26;55.83;96702.72;10401509;28;20041;-29
2023/12/25 15:53:23;;;;;;;1.42;0.43;;;;;;;19.26;55.79;96705.25;10394002;28;20124;-30
2023/12/25 15:58:26;;;;;;;1.02;0.57;;;;;;;19.18;55.67;96691.72;10398486;28;20029;-28
2023/12/25 16:03:26;;;;;;;0.70;0.50;;;;;;;19.22;55.10;96695.94;10400363;28;20470;-28
2023/12/25 16:08:27;;;;;;;0.73;0.50;;;;;;;19.23;55.18;96700.16;10398293;28;20021;-28
2023/12/25 16:13:27;;;;;;;0.83;0.53;;;;;;;19.22;55.67;96693.41;10399911;28;20033;-28
2023/12/25 16:18:27;;;;;;;0.77;0.50;;;;;;;19.21;55.65;96701.88;10401426;28;20038;-29
2023/12/25 16:23:28;;;;;;;0.80;0.40;;;;;;;19.21;55.47;96699.34;10397783;28;20061;-29
2023/12/25 16:28:30;;;;;;;0.65;0.40;;;;;;;19.19;55.51;96684.09;10395728;28;20029;-29
2023/12/25 16:33:31;;;;;;;1.00;0.63;;;;;;;19.20;55.14;96701.03;10400566;28;20644;-29
2023/12/25 16:38:31;;;;;;;1.27;0.50;;;;;;;19.20;55.62;96695.97;10403947;28;20034;-30
2023/12/25 16:43:33;;;;;;;1.88;0.50;;;;;;;19.16;55.35;96683.25;10402625;28;20423;-28
2023/12/25 16:48:33;;;;;;;1.05;0.45;;;;;;;19.20;55.93;96690.91;10407860;28;20727;-29
2023/12/25 16:53:34;;;;;;;0.93;0.50;;;;;;;19.18;55.44;96690.00;10407454;28;20036;-29
2023/12/25 16:58:38;;;;;;;0.60;0.40;;;;;;;19.19;55.90;96698.50;10404014;28;20025;-29
2023/12/25 17:03:39;;;;;;;0.75;0.50;;;;;;;19.18;55.85;96694.25;10408093;28;20658;-29
2023/12/25 17:08:40;;;;;;;1.20;0.60;;;;;;;19.15;55.58;96700.16;10406616;28;20067;-29
2023/12/25 17:13:40;;;;;;;0.50;0.20;;;;;;;19.19;55.77;96706.13;10401931;28;20037;-30
2023/12/25 17:18:40;;;;;;;0.43;0.40;;;;;;;19.18;55.49;96706.94;10394786;28;20040;-29
2023/12/25 17:23:41;;;;;;;0.83;0.40;;;;;;;19.18;55.48;96696.78;10380447;28;20666;-29
2023/12/25 17:28:42;;;;;;;0.88;0.40;;;;;;;19.17;55.53;96693.38;10397319;28;20029;-29
2023/12/25 17:33:43;;;;;;;0.70;0.43;;;;;;;19.14;55.67;96698.47;10393778;28;20033;-28
2023/12/25 17:38:43;;;;;;;1.33;0.50;;;;;;;19.16;55.11;96709.47;10383782;28;20040;-29
2023/12/25 17:43:43;;;;;;;0.50;0.50;;;;;;;19.16;55.71;96703.56;10395462;28;20052;-28
2023/12/25 17:48:44;;;;;;;0.63;0.50;;;;;;;19.07;55.43;96678.19;10383156;28;20030;-30
2023/12/25 17:53:44;;;;;;;0.90;0.40;;;;;;;19.15;55.18;96691.69;10379448;28;20492;-29
2023/12/25 17:58:44;;;;;;;1.23;0.67;;;;;;;19.13;55.51;96693.41;10379159;28;20041;-29
2023/12/25 18:03:45;;;;;;;0.50;0.37;;;;;;;19.13;55.72;96703.56;10396879;28;20654;-29
2023/12/25 18:08:45;;;;;;;0.67;0.30;;;;;;;19.15;55.68;96701.84;10392468;28;20033;-30
2023/12/25 18:13:45;;;;;;;1.03;0.50;;;;;;;19.13;55.76;96693.41;10375639;28;20040;-30
2023/12/25 18:18:46;;;;;;;0.67;0.30;;;;;;;19.13;55.73;96698.47;10403598;28;20395;-29
2023/12/25 18:23:46;;;;;;;0.57;0.30;;;;;;;19.11;55.88;96706.13;10381993;28;20060;-28
2023/12/25 18:28:47;;;;;;;0.45;0.40;;;;;;;19.10;55.79;96696.78;10397032;28;20033;-29
2023/12/25 18:33:48;;;;;;;1.90;0.50;;;;;;;19.11;55.75;96690.88;10387401;28;20029;-30
2023/12/25 18:38:48;;;;;;;0.50;0.20;;;;;;;19.10;55.78;96693.41;10394235;28;20565;-29
2023/12/25 18:43:48;;;;;;;0.70;0.50;;;;;;;19.10;55.89;96699.31;10398465;28;20040;-29
2023/12/25 18:48:49;;;;;;;0.30;0.30;;;;;;;19.10;55.88;96699.31;10396987;28;20030;-29
2023/12/25 18:53:49;;;;;;;1.37;1.00;;;;;;;19.08;55.71;96700.19;10389258;28;20644;-29
2023/12/25 18:58:50;;;;;;;0.52;0.40;;;;;;;19.10;55.99;96698.50;10383458;28;20029;-30
2023/12/25 19:03:52;;;;;;;0.27;0.17;;;;;;;19.10;55.62;96706.09;10388936;28;20033;-29
2023/12/25 19:08:52;;;;;;;1.00;0.73;;;;;;;19.09;55.91;96701.88;10399016;28;20043;-29
2023/12/25 19:13:53;;;;;;;0.60;0.50;;;;;;;19.07;55.95;96699.34;10380715;28;20038;-30
2023/12/25 19:18:53;;;;;;;0.80;0.30;;;;;;;19.08;55.81;96695.13;10381135;28;20029;-29
2023/12/25 19:23:54;;;;;;;0.57;0.30;;;;;;;19.05;56.05;96690.03;10383195;28;20138;-29
2023/12/25 19:28:55;;;;;;;0.65;0.43;;;;;;;19.00;56.24;96677.38;10384908;28;20033;-29
2023/12/25 19:33:55;;;;;;;0.28;0.25;;;;;;;19.06;55.95;96671.44;10383413;28;20052;-30
2023/12/25 19:38:56;;;;;;;0.43;0.40;;;;;;;19.03;55.57;96671.44;10384502;28;20030;-29
2023/12/25 19:43:56;;;;;;;0.80;0.37;;;;;;;19.03;55.81;96666.38;10391848;28;20021;-29
2023/12/25 19:48:56;;;;;;;0.40;0.30;;;;;;;19.03;55.82;96671.44;10373034;28;20408;-29
2023/12/25 19:53:57;;;;;;;0.50;0.40;;;;;;;19.01;56.08;96663.00;10384479;28;20036;-29
2023/12/25 19:58:57;;;;;;;0.90;0.30;;;;;;;19.02;56.17;96647.75;10378948;28;20040;-29
2023/12/25 20:03:58;;;;;;;0.27;0.20;;;;;;;19.01;55.94;96657.94;10380321;28;20342;-28
2023/12/25 20:08:59;;;;;;;0.38;0.30;;;;;;;19.04;56.05;96657.91;10384639;28;20029;-29
2023/12/25 20:14:00;;;;;;;0.28;0.20;;;;;;;19.02;56.17;96650.28;10381154;28;20046;-29
2023/12/25 20:19:01;;;;;;;0.70;0.50;;;;;;;19.00;56.14;96635.94;10387205;28;20036;-29
2023/12/25 20:24:02;;;;;;;0.30;0.30;;;;;;;19.00;56.02;96641.03;10388823;28;20049;-30
2023/12/25 20:29:02;;;;;;;0.45;0.40;;;;;;;19.01;56.06;96635.09;10399314;28;20099;-29
2023/12/25 20:34:03;;;;;;;0.55;0.32;;;;;;;19.01;55.78;96632.56;10398296;28;20037;-29
2023/12/25 20:39:03;;;;;;;0.60;0.43;;;;;;;18.98;55.98;96630.00;10387476;28;20069;-30
2023/12/25 20:44:04;;;;;;;0.30;0.30;;;;;;;18.99;55.64;96631.72;10391364;28;20454;-29
2023/12/25 20:49:05;;;;;;;0.70;0.30;;;;;;;19.00;56.25;96625.81;10397031;28;20446;-29
2023/12/25 20:54:06;;;;;;;0.50;0.45;;;;;;;18.99;56.06;96629.19;10386391;28;20382;-29
2023/12/25 20:59:06;;;;;;;0.30;0.20;;;;;;;18.97;55.93;96626.66;10401767;28;20033;-29
2023/12/25 21:04:07;;;;;;;0.73;0.70;;;;;;;18.97;55.98;96644.41;10392555;28;20760;-29
2023/12/25 21:09:09;;;;;;;0.80;0.20;;;;;;;18.96;56.19;96642.72;10387828;28;20359;-30
2023/12/25 21:14:09;;;;;;;0.22;0.20;;;;;;;18.95;56.25;96622.41;10382174;28;20033;-29
2023/12/25 21:19:15;;;;;;;0.40;0.30;;;;;;;18.94;56.21;96630.88;10395828;28;20391;-30
2023/12/25 21:24:15;;;;;;;0.10;0.10;;;;;;;18.93;56.11;96613.97;10397087;28;20033;-29
2023/12/25 21:29:16;;;;;;;0.30;0.22;;;;;;;18.94;55.90;96630.88;10388213;28;20447;-29
2023/12/25 21:34:16;;;;;;;0.27;0.27;;;;;;;18.93;56.03;96624.13;10392689;28;20037;-29
2023/12/25 21:39:17;;;;;;;0.50;0.32;;;;;;;18.93;55.62;96621.59;10402484;28;20782;-29
2023/12/25 21:44:17;;;;;;;0.20;0.20;;;;;;;18.91;56.25;96619.03;10400714;28;20133;-29
2023/12/25 21:49:18;;;;;;;0.53;0.30;;;;;;;18.92;56.07;96628.34;10385404;28;20045;-29
2023/12/25 21:54:19;;;;;;;0.28;0.20;;;;;;;18.84;55.65;96603.88;10385113;28;20128;-29
2023/12/25 21:59:20;;;;;;;0.47;0.35;;;;;;;18.91;56.06;96628.38;10393711;28;20118;-29
2023/12/25 22:04:20;;;;;;;0.28;0.20;;;;;;;18.92;55.91;96627.50;10384707;28;20034;-30
2023/12/25 22:09:21;;;;;;;0.37;0.30;;;;;;;18.90;56.07;96624.13;10396063;28;20099;-29
2023/12/25 22:14:21;;;;;;;0.43;0.28;;;;;;;18.92;56.17;96632.59;10387427;28;20243;-29
2023/12/25 22:19:21;;;;;;;0.30;0.30;;;;;;;18.92;56.02;96628.34;10391693;28;20052;-29
2023/12/25 22:24:22;;;;;;;0.20;0.20;;;;;;;18.89;56.17;96635.13;10391690;28;20044;-29
2023/12/25 22:29:23;;;;;;;0.37;0.33;;;;;;;18.88;56.14;96630.91;10388277;28;20442;-30
2023/12/25 22:34:23;;;;;;;0.35;0.30;;;;;;;18.89;56.15;96632.56;10386938;28;20380;-29
2023/12/25 22:39:25;;;;;;;0.50;0.30;;;;;;;18.88;55.87;96625.81;10391042;28;20056;-30
2023/12/25 22:44:25;;;;;;;0.73;0.30;;;;;;;18.87;56.20;96625.00;10394806;28;20043;-30
2023/12/25 22:49:25;;;;;;;0.30;0.30;;;;;;;18.85;56.22;96625.84;10387525;28;20041;-29
2023/12/25 22:54:26;;;;;;;0.40;0.30;;;;;;;18.87;56.04;96624.13;10384119;28;20068;-29
2023/12/25 22:59:26;;;;;;;0.70;0.40;;;;;;;18.87;56.16;96619.06;10381353;28;20308;-29
2023/12/25 23:04:27;;;;;;;0.20;0.20;;;;;;;18.85;56.12;96613.16;10390244;28;20029;-30
2023/12/25 23:09:27;;;;;;;0.32;0.30;;;;;;;18.79;55.98;96611.50;10387903;28;20052;-29
2023/12/25 23:14:30;;;;;;;0.28;0.20;;;;;;;18.84;56.08;96619.09;10382177;28;20041;-29
2023/12/25 23:19:31;;;;;;;0.90;0.40;;;;;;;18.84;56.35;96614.00;10390846;28;20118;-29